createdAt,value
2022-12-01T00:01:49.766Z,149.73
2022-12-01T00:04:39.213Z,157.63
2022-12-01T00:07:29.961Z,156.93
2022-12-01T00:10:27.502Z,162.13
2022-12-01T00:13:17.027Z,170.93
2022-12-01T00:16:13.687Z,170.18
2022-12-01T00:19:03.036Z,166.73
2022-12-01T00:21:52.399Z,175.45
2022-12-01T00:24:43.143Z,178.15
2022-12-01T00:27:32.385Z,177.25
2022-12-01T00:30:23.646Z,176.40
2022-12-01T00:33:12.900Z,182.00
2022-12-01T00:36:02.437Z,172.55
2022-12-01T00:38:54.791Z,168.55
2022-12-01T00:41:45.497Z,164.90
2022-12-01T00:44:34.815Z,148.43
2022-12-01T00:47:24.331Z,141.70
2022-12-01T00:50:13.846Z,136.27
2022-12-01T00:53:03.694Z,128.57
2022-12-01T00:55:54.062Z,201.80
2022-12-01T00:58:44.826Z,111.05
2022-12-01T01:01:34.951Z,116.43
2022-12-01T01:04:24.631Z,86.90
2022-12-01T01:07:13.855Z,49.50
2022-12-01T01:10:03.299Z,44.03
2022-12-01T01:12:52.546Z,37.60
2022-12-01T01:15:43.715Z,26.58
2022-12-01T01:18:33.718Z,40.65
2022-12-01T01:21:24.174Z,41.25
2022-12-01T01:24:13.657Z,58.78
2022-12-01T01:27:02.929Z,53.03
2022-12-01T01:29:52.231Z,50.25
2022-12-01T01:32:43.146Z,66.28
2022-12-01T01:35:32.382Z,53.30
2022-12-01T01:38:21.703Z,53.55
2022-12-01T01:41:12.001Z,48.28
2022-12-01T01:44:05.139Z,47.97
2022-12-01T01:49:48.623Z,45.38
2022-12-01T01:52:43.182Z,64.80
2022-12-01T01:55:35.145Z,97.40
2022-12-01T01:58:25.372Z,124.55
2022-12-01T02:01:14.813Z,127.35
2022-12-01T02:04:05.370Z,136.95
2022-12-01T02:06:56.865Z,124.03
2022-12-01T02:09:46.782Z,122.15
2022-12-01T02:12:54.867Z,118.65
2022-12-01T02:15:51.160Z,106.60
2022-12-01T02:18:51.174Z,104.25
2022-12-01T02:22:00.875Z,101.13
2022-12-01T02:25:08.458Z,103.70
2022-12-01T02:28:27.478Z,96.65
2022-12-01T02:31:24.074Z,95.35
2022-12-01T02:34:21.759Z,95.43
2022-12-01T02:37:22.296Z,97.88
2022-12-01T02:40:20.328Z,94.63
2022-12-01T02:43:19.266Z,85.95
2022-12-01T02:46:15.341Z,82.85
2022-12-01T02:49:12.973Z,82.28
2022-12-01T02:52:04.060Z,75.57
2022-12-01T02:54:54.435Z,77.38
2022-12-01T02:57:43.719Z,75.38
2022-12-01T03:00:33.351Z,68.60
2022-12-01T03:03:40.053Z,77.00
2022-12-01T03:06:44.245Z,79.20
2022-12-01T03:09:46.713Z,78.25
2022-12-01T03:12:46.874Z,71.82
2022-12-01T03:15:46.919Z,72.60
2022-12-01T03:18:40.548Z,67.78
2022-12-01T03:21:40.701Z,71.57
2022-12-01T03:24:33.141Z,71.80
2022-12-01T03:27:29.112Z,73.85
2022-12-01T03:30:19.285Z,70.30
2022-12-01T03:33:15.799Z,77.88
2022-12-01T03:36:12.192Z,73.68
2022-12-01T03:39:08.792Z,73.03
2022-12-01T03:42:05.185Z,71.40
2022-12-01T03:45:00.023Z,72.20
2022-12-01T03:47:49.403Z,77.75
2022-12-01T03:50:48.019Z,74.25
2022-12-01T03:53:49.754Z,70.82
2022-12-01T03:56:46.961Z,72.15
2022-12-01T03:59:38.931Z,75.28
2022-12-01T04:02:29.167Z,65.47
2022-12-01T04:05:23.834Z,69.22
2022-12-01T04:08:14.524Z,67.03
2022-12-01T04:11:28.212Z,63.25
2022-12-01T04:14:20.994Z,56.60
2022-12-01T04:17:10.570Z,56.65
2022-12-01T04:20:00.038Z,58.50
2022-12-01T04:22:49.764Z,58.08
2022-12-01T04:25:39.166Z,63.67
2022-12-01T04:28:28.936Z,69.75
2022-12-01T04:31:19.694Z,65.85
2022-12-01T04:34:09.610Z,72.03
2022-12-01T04:36:58.835Z,71.72
2022-12-01T04:39:48.518Z,59.67
2022-12-01T04:42:38.177Z,44.33
2022-12-01T04:45:27.498Z,38.85
2022-12-01T04:48:18.224Z,34.03
2022-12-01T04:51:09.631Z,33.38
2022-12-01T04:53:59.066Z,34.40
2022-12-01T04:56:48.333Z,28.52
2022-12-01T04:59:37.716Z,29.95
2022-12-01T05:02:27.069Z,28.52
2022-12-01T05:05:17.986Z,31.23
2022-12-01T05:08:07.542Z,36.83
2022-12-01T05:10:57.666Z,26.98
2022-12-01T05:13:48.790Z,25.50
2022-12-01T05:16:38.079Z,27.75
2022-12-01T05:19:45.200Z,32.58
2022-12-01T05:23:03.743Z,29.48
2022-12-01T05:25:45.209Z,32.10
2022-12-01T05:28:34.825Z,29.33
2022-12-01T05:31:24.186Z,28.15
2022-12-01T05:34:13.819Z,30.33
2022-12-01T05:37:03.109Z,30.38
2022-12-01T05:39:53.788Z,27.48
2022-12-01T05:42:43.095Z,31.52
2022-12-01T05:45:32.511Z,28.75
2022-12-01T05:48:21.911Z,25.17
2022-12-01T05:51:13.128Z,29.90
2022-12-01T05:54:02.593Z,28.52
2022-12-01T05:56:53.342Z,28.10
2022-12-01T05:59:42.831Z,26.65
2022-12-01T06:02:32.082Z,29.58
2022-12-01T06:05:21.780Z,27.70
2022-12-01T06:08:11.061Z,30.50
2022-12-01T06:11:00.458Z,28.00
2022-12-01T06:13:51.425Z,29.13
2022-12-01T06:16:40.812Z,29.73
2022-12-01T06:19:31.408Z,31.30
2022-12-01T06:22:20.783Z,31.60
2022-12-01T06:25:11.383Z,33.75
2022-12-01T06:28:01.241Z,36.05
2022-12-01T06:30:52.049Z,36.35
2022-12-01T06:33:41.455Z,39.13
2022-12-01T06:36:30.686Z,44.28
2022-12-01T06:39:20.244Z,42.65
2022-12-01T06:42:09.529Z,49.97
2022-12-01T06:44:58.928Z,48.55
2022-12-01T06:47:50.801Z,50.03
2022-12-01T06:50:40.498Z,53.05
2022-12-01T06:53:30.148Z,51.70
2022-12-01T06:56:19.420Z,53.10
2022-12-01T06:59:09.019Z,54.72
2022-12-01T07:01:58.817Z,53.88
2022-12-01T07:04:49.784Z,57.17
2022-12-01T07:07:40.473Z,54.33
2022-12-01T07:10:30.268Z,55.00
2022-12-01T07:13:19.573Z,52.20
2022-12-01T07:16:10.602Z,52.28
2022-12-01T07:19:00.339Z,53.55
2022-12-01T07:21:51.032Z,52.80
2022-12-01T07:24:40.268Z,51.58
2022-12-01T07:27:32.165Z,52.28
2022-12-01T07:30:26.875Z,50.33
2022-12-01T07:33:17.786Z,58.60
2022-12-01T07:36:09.130Z,53.40
2022-12-01T07:38:59.931Z,54.08
2022-12-01T07:41:49.228Z,60.17
2022-12-01T07:44:38.524Z,57.85
2022-12-01T07:47:27.893Z,58.05
2022-12-01T07:50:17.368Z,58.47
2022-12-01T07:53:06.978Z,59.50
2022-12-01T07:55:57.587Z,58.08
2022-12-01T07:58:47.023Z,60.00
2022-12-01T08:01:40.281Z,62.13
2022-12-01T08:04:33.607Z,64.10
2022-12-01T08:07:26.022Z,64.75
2022-12-01T08:10:17.897Z,63.92
2022-12-01T08:13:11.716Z,60.88
2022-12-01T08:16:06.471Z,62.70
2022-12-01T08:18:56.182Z,58.95
2022-12-01T08:21:45.648Z,59.65
2022-12-01T08:24:34.887Z,60.25
2022-12-01T08:27:24.235Z,60.47
2022-12-01T08:30:16.074Z,62.40
2022-12-01T08:33:05.545Z,62.17
2022-12-01T08:35:55.000Z,59.60
2022-12-01T08:38:45.807Z,64.07
2022-12-01T08:41:35.147Z,62.83
2022-12-01T08:44:24.492Z,64.93
2022-12-01T08:47:18.709Z,62.75
2022-12-01T08:50:09.685Z,60.97
2022-12-01T08:52:58.887Z,60.40
2022-12-01T08:55:48.244Z,65.90
2022-12-01T08:58:37.516Z,64.68
2022-12-01T09:01:27.154Z,65.00
2022-12-01T09:04:17.881Z,62.65
2022-12-01T09:07:07.269Z,64.95
2022-12-01T09:09:56.579Z,63.45
2022-12-01T09:12:45.811Z,60.60
2022-12-01T09:15:35.327Z,64.32
2022-12-01T09:18:24.925Z,68.35
2022-12-01T09:21:30.470Z,62.75
2022-12-01T09:24:19.803Z,62.92
2022-12-01T09:27:10.563Z,62.05
2022-12-01T09:29:59.867Z,59.65
2022-12-01T09:32:49.159Z,51.33
2022-12-01T09:35:38.773Z,50.15
2022-12-01T09:38:31.332Z,42.53
2022-12-01T09:41:25.662Z,37.25
2022-12-01T09:44:23.738Z,35.22
2022-12-01T09:47:19.458Z,37.15
2022-12-01T09:50:14.604Z,34.92
2022-12-01T09:53:08.579Z,34.92
2022-12-01T09:56:06.098Z,35.53
2022-12-01T09:59:02.688Z,35.97
2022-12-01T10:01:59.427Z,34.90
2022-12-01T10:04:52.177Z,37.17
2022-12-01T10:07:49.952Z,38.17
2022-12-01T10:10:44.308Z,33.00
2022-12-01T10:13:35.879Z,35.03
2022-12-01T10:16:31.699Z,36.85
2022-12-01T10:19:28.045Z,36.88
2022-12-01T10:22:57.995Z,34.92
2022-12-01T10:25:58.150Z,31.33
2022-12-01T10:29:17.630Z,32.55
2022-12-01T10:32:17.906Z,31.38
2022-12-01T10:35:07.832Z,31.92
2022-12-01T10:38:00.565Z,29.38
2022-12-01T10:40:51.755Z,30.10
2022-12-01T10:43:45.435Z,29.77
2022-12-01T10:46:44.822Z,29.17
2022-12-01T10:49:39.865Z,29.15
2022-12-01T10:52:39.639Z,29.50
2022-12-01T10:55:33.164Z,27.33
2022-12-01T10:58:22.735Z,28.13
2022-12-01T11:01:21.668Z,26.25
2022-12-01T11:04:45.508Z,24.80
2022-12-01T11:07:43.187Z,32.17
2022-12-01T11:10:34.871Z,35.33
2022-12-01T11:13:29.182Z,24.92
2022-12-01T11:16:41.002Z,27.23
2022-12-01T11:19:35.177Z,26.52
2022-12-01T11:22:28.616Z,29.35
2022-12-01T11:25:22.944Z,30.85
2022-12-01T11:28:22.059Z,25.90
2022-12-01T11:31:13.090Z,29.08
2022-12-01T11:34:02.629Z,31.00
2022-12-01T11:36:57.138Z,23.50
2022-12-01T11:39:48.400Z,25.85
2022-12-01T11:42:40.333Z,26.30
2022-12-01T11:45:33.978Z,31.63
2022-12-01T11:48:27.616Z,33.75
2022-12-01T11:51:30.024Z,34.80
2022-12-01T11:54:24.259Z,33.72
2022-12-01T11:57:33.582Z,34.35
2022-12-01T12:00:26.477Z,35.20
2022-12-01T12:03:26.118Z,29.10
2022-12-01T12:06:40.483Z,30.65
2022-12-01T12:09:47.957Z,31.40
2022-12-01T12:13:00.751Z,30.10
2022-12-01T12:16:02.250Z,31.65
2022-12-01T12:19:12.204Z,35.03
2022-12-01T12:22:17.843Z,32.40
2022-12-01T12:25:25.445Z,28.75
2022-12-01T12:28:50.826Z,31.42
2022-12-01T12:31:53.216Z,26.67
2022-12-01T12:34:56.500Z,30.38
2022-12-01T12:40:52.918Z,24.80
2022-12-01T12:43:58.404Z,34.20
2022-12-01T12:47:05.649Z,24.90
2022-12-01T12:50:08.535Z,29.25
2022-12-01T12:53:03.915Z,28.60
2022-12-01T12:56:00.104Z,25.23
2022-12-01T12:58:58.393Z,27.13
2022-12-01T13:01:55.279Z,25.80
2022-12-01T13:04:52.285Z,21.85
2022-12-01T13:07:48.661Z,27.67
2022-12-01T13:10:44.353Z,25.80
2022-12-01T13:13:41.614Z,23.67
2022-12-01T13:16:36.552Z,29.42
2022-12-01T13:19:32.422Z,23.30
2022-12-01T13:22:30.540Z,25.38
2022-12-01T13:25:28.759Z,24.05
2022-12-01T13:28:23.928Z,26.73
2022-12-01T13:31:17.370Z,24.20
2022-12-01T13:34:07.875Z,24.05
2022-12-01T13:36:57.754Z,24.85
2022-12-01T13:39:47.213Z,24.13
2022-12-01T13:42:38.152Z,26.10
2022-12-01T13:45:33.980Z,22.30
2022-12-01T13:48:51.810Z,27.10
2022-12-01T13:52:33.307Z,24.85
2022-12-01T13:55:30.717Z,26.45
2022-12-01T13:58:44.171Z,23.00
2022-12-01T14:02:08.439Z,23.20
2022-12-01T14:05:44.906Z,22.30
2022-12-01T14:08:37.823Z,20.75
2022-12-01T14:11:29.830Z,24.20
2022-12-01T14:14:26.184Z,34.53
2022-12-01T14:17:29.134Z,24.90
2022-12-01T14:20:23.485Z,23.75
2022-12-01T14:23:24.321Z,23.48
2022-12-01T14:26:18.023Z,26.23
2022-12-01T14:29:36.105Z,21.52
2022-12-01T14:32:25.952Z,29.60
2022-12-01T14:35:16.123Z,23.42
2022-12-01T14:38:08.450Z,27.02
2022-12-01T14:40:57.915Z,22.57
2022-12-01T14:44:06.749Z,23.60
2022-12-01T14:47:01.601Z,20.42
2022-12-01T14:50:03.125Z,30.55
2022-12-01T14:52:58.723Z,22.92
2022-12-01T14:55:56.345Z,59.42
2022-12-01T14:58:55.084Z,20.80
2022-12-01T15:01:44.506Z,19.40
2022-12-01T15:04:34.534Z,21.00
2022-12-01T15:07:24.423Z,19.27
2022-12-01T15:10:20.649Z,18.95
2022-12-01T15:13:28.037Z,44.05
2022-12-01T15:16:20.786Z,18.85
2022-12-01T15:19:25.345Z,18.92
2022-12-01T15:22:18.064Z,18.55
2022-12-01T15:25:12.484Z,19.75
2022-12-01T15:28:14.370Z,19.30
2022-12-01T15:31:14.543Z,19.73
2022-12-01T15:34:04.341Z,21.60
2022-12-01T15:36:54.748Z,21.88
2022-12-01T15:39:48.407Z,22.85
2022-12-01T15:42:39.649Z,31.05
2022-12-01T15:45:29.102Z,21.92
2022-12-01T15:48:32.035Z,20.70
2022-12-01T15:51:28.323Z,21.20
2022-12-01T15:54:22.580Z,22.55
2022-12-01T15:57:20.243Z,27.67
2022-12-01T16:00:21.129Z,26.25
2022-12-01T16:03:15.840Z,49.20
2022-12-01T16:06:12.790Z,31.50
2022-12-01T16:09:05.256Z,29.02
2022-12-01T16:12:24.164Z,27.08
2022-12-01T16:15:23.442Z,25.38
2022-12-01T16:18:30.782Z,26.75
2022-12-01T16:21:21.973Z,29.98
2022-12-01T16:24:17.209Z,28.25
2022-12-01T16:27:08.797Z,38.33
2022-12-01T16:30:02.181Z,51.88
2022-12-01T16:32:52.251Z,40.88
2022-12-01T16:35:41.604Z,32.00
2022-12-01T16:38:32.361Z,42.60
2022-12-01T16:41:37.698Z,41.92
2022-12-01T16:44:29.076Z,35.38
2022-12-01T16:47:21.663Z,38.60
2022-12-01T16:50:15.326Z,47.67
2022-12-01T16:53:04.753Z,45.72
2022-12-01T16:55:57.784Z,40.83
2022-12-01T16:58:47.071Z,27.52
2022-12-01T17:01:36.301Z,29.77
2022-12-01T17:04:25.931Z,29.80
2022-12-01T17:07:15.283Z,36.63
2022-12-01T17:10:05.010Z,43.55
2022-12-01T17:12:56.092Z,44.75
2022-12-01T17:15:47.866Z,42.65
2022-12-01T17:18:38.952Z,51.80
2022-12-01T17:21:28.585Z,59.35
2022-12-01T17:24:19.319Z,62.95
2022-12-01T17:27:08.925Z,82.95
2022-12-01T17:30:00.252Z,108.07
2022-12-01T17:32:49.587Z,83.70
2022-12-01T17:35:40.004Z,68.10
2022-12-01T17:38:29.370Z,56.63
2022-12-01T17:41:22.050Z,53.40
2022-12-01T17:44:11.573Z,50.35
2022-12-01T17:47:02.231Z,49.60
2022-12-01T17:49:51.637Z,58.60
2022-12-01T17:52:41.186Z,66.13
2022-12-01T17:55:30.459Z,52.45
2022-12-01T17:58:21.711Z,46.53
2022-12-01T18:01:16.930Z,48.30
2022-12-01T18:04:08.031Z,45.72
2022-12-01T18:06:57.580Z,47.88
2022-12-01T18:09:47.028Z,46.42
2022-12-01T18:12:36.339Z,49.35
2022-12-01T18:15:33.261Z,46.78
2022-12-01T18:18:24.050Z,45.67
2022-12-01T18:21:17.336Z,43.35
2022-12-01T18:24:09.092Z,51.42
2022-12-01T18:26:58.686Z,45.40
2022-12-01T18:29:48.580Z,59.78
2022-12-01T18:32:38.046Z,80.47
2022-12-01T18:35:31.763Z,60.70
2022-12-01T18:38:25.034Z,48.95
2022-12-01T18:41:18.842Z,40.05
2022-12-01T18:44:08.558Z,45.70
2022-12-01T18:46:59.084Z,52.70
2022-12-01T18:49:49.117Z,48.47
2022-12-01T18:52:38.780Z,53.45
2022-12-01T18:55:29.877Z,53.38
2022-12-01T18:58:19.176Z,53.15
2022-12-01T19:01:21.677Z,53.83
2022-12-01T19:04:11.813Z,53.73
2022-12-01T19:07:01.256Z,60.92
2022-12-01T19:09:51.232Z,65.00
2022-12-01T19:12:42.526Z,80.90
2022-12-01T19:15:31.982Z,92.30
2022-12-01T19:18:21.305Z,82.00
2022-12-01T19:21:13.947Z,82.18
2022-12-01T19:24:03.594Z,82.57
2022-12-01T19:26:53.100Z,79.03
2022-12-01T19:29:44.006Z,73.60
2022-12-01T19:32:34.179Z,61.20
2022-12-01T19:35:24.041Z,68.65
2022-12-01T19:38:13.606Z,75.43
2022-12-01T19:41:03.762Z,69.15
2022-12-01T19:43:54.126Z,52.38
2022-12-01T19:46:46.149Z,49.50
2022-12-01T19:49:35.651Z,44.58
2022-12-01T19:52:25.187Z,39.53
2022-12-01T19:55:14.476Z,37.42
2022-12-01T19:58:04.416Z,44.80
2022-12-01T20:00:53.751Z,47.15
2022-12-01T20:03:47.096Z,52.45
2022-12-01T20:06:38.849Z,53.47
2022-12-01T20:09:28.271Z,56.20
2022-12-01T20:12:20.001Z,52.85
2022-12-01T20:15:10.834Z,52.85
2022-12-01T20:18:00.188Z,49.45
2022-12-01T20:20:50.878Z,49.38
2022-12-01T20:23:40.247Z,46.72
2022-12-01T20:26:32.318Z,43.03
2022-12-01T20:29:25.840Z,43.58
2022-12-01T20:32:19.326Z,47.65
2022-12-01T20:35:12.725Z,43.47
2022-12-01T20:38:03.463Z,45.55
2022-12-01T20:40:53.599Z,52.47
2022-12-01T20:43:42.986Z,51.53
2022-12-01T20:46:32.617Z,56.20
2022-12-01T20:49:22.533Z,55.33
2022-12-01T20:52:12.000Z,56.40
2022-12-01T20:55:02.672Z,56.97
2022-12-01T20:57:52.261Z,57.83
2022-12-01T21:00:44.384Z,55.05
2022-12-01T21:03:33.780Z,58.95
2022-12-01T21:06:23.918Z,51.58
2022-12-01T21:09:15.077Z,48.58
2022-12-01T21:12:32.335Z,48.45
2022-12-01T21:15:28.483Z,44.22
2022-12-01T21:18:23.936Z,45.45
2022-12-01T21:21:25.150Z,46.22
2022-12-01T21:24:17.209Z,44.00
2022-12-01T21:27:15.871Z,41.40
2022-12-01T21:30:16.161Z,44.28
2022-12-01T21:33:24.118Z,43.13
2022-12-01T21:36:18.233Z,41.10
2022-12-01T21:39:15.600Z,37.53
2022-12-01T21:42:19.996Z,37.60
2022-12-01T21:45:20.423Z,33.20
2022-12-01T21:48:17.971Z,36.30
2022-12-01T21:51:17.596Z,37.13
2022-12-01T21:54:13.650Z,38.42
2022-12-01T21:57:03.220Z,34.70
2022-12-01T21:59:59.119Z,34.28
2022-12-01T22:02:53.620Z,38.35
2022-12-01T22:06:07.126Z,32.25
2022-12-01T22:08:59.823Z,37.90
2022-12-01T22:11:54.418Z,34.03
2022-12-01T22:14:43.805Z,34.03
2022-12-01T22:17:36.928Z,36.42
2022-12-01T22:23:16.043Z,28.08
2022-12-01T22:26:19.925Z,30.50
2022-12-01T22:29:27.758Z,30.58
2022-12-01T22:32:56.890Z,31.73
2022-12-01T22:35:48.436Z,33.33
2022-12-01T22:38:39.786Z,34.83
2022-12-01T22:41:29.860Z,32.45
2022-12-01T22:44:20.198Z,34.95
2022-12-01T22:47:22.336Z,38.97
2022-12-01T22:50:27.687Z,35.97
2022-12-01T22:53:20.305Z,36.38
2022-12-01T22:56:28.746Z,37.83
2022-12-01T22:59:21.745Z,38.20
2022-12-01T23:02:21.400Z,39.00
2022-12-01T23:05:26.091Z,38.88
2022-12-01T23:08:21.321Z,36.17
2022-12-01T23:11:13.194Z,41.47
2022-12-01T23:14:02.652Z,41.88
2022-12-01T23:16:57.941Z,43.42
2022-12-01T23:19:47.772Z,39.90
2022-12-01T23:22:38.784Z,42.58
2022-12-01T23:25:29.276Z,42.90
2022-12-01T23:28:19.863Z,39.85
2022-12-01T23:31:11.278Z,43.53
2022-12-01T23:34:03.278Z,42.10
2022-12-01T23:36:59.932Z,45.38
2022-12-01T23:39:52.165Z,41.88
2022-12-01T23:42:41.559Z,41.55
2022-12-01T23:45:31.410Z,37.53
2022-12-01T23:48:27.070Z,40.08
2022-12-01T23:51:23.467Z,37.58
2022-12-01T23:54:17.998Z,39.60
2022-12-01T23:57:19.538Z,39.40
